Airfield :
LOGIN :

Register | Disclaimer

   EN    FR    IT 

 










Legend :    VFR   Marginal VFR   IFR   Intensive IFR   Very Intensive IFR
Visi :
Ceiling :
>= 8 km
>= 3000ft
5 to 8 km
1000 to 3000 ft
1500m to 5 km
500 to 1000 ft
800 to 1500m
200 to 500 ft
< 800m
< 200 ft
Symbols :   Thunderstorms  Fog  Heavy snow  Heavy precipitations  Wind > 20 kt
SIGMETs :     Misc.  Thunderstorms  Icing  Turbulence  Mountain Waves  Volcanic Ashes






- Airport Elevation : 39 ft


ETNH - Hohn AB

CURRENT METAR :
  • 201120Z 02001KT 0500 R26/2100U FG VV000 02/02 Q1019 RED RED BECMG YLO

EXPIRED METARs :
  • 201020Z 00000KT 0400 R26/0600N FG VV000 02/02 Q1019 RED RED
  • 200920Z VRB01KT 0200 R26/0900N FG VV000 02/01 Q1020 RED RED

TAF TAF ETNH
Valid from the 20 at 12:00 until the 21 at 00:00 UTC


201110Z 2012/2024 VRB03KT 0200 FG VV001
BECMG 2012/2013 06004KT 2000 -RADZ OVC003
TEMPO 2013/2015 29005KT 2000 -RADZ OVC002
BECMG 2015/2017 30004KT 4000 BR BKN007 BKN015
TEMPO 2017/2024 29005KT 2000 -RA BR BKN005 BKN010 BY ETGL



MET'MAP, your aeronautical weather chart ! - Copyright ORBIFLY December 2007 - Disclaimer

ORBIFLY MET'MAP TEAM :

Programming & Development : Alexandra Zaïnal
Concept & Development : Baudouin d'Aumeries
Co-Development & Prog : Marc-Olivier Méhu
Technical & hardware support : Manuel Goepfert

Contact : metmap@orbifly.com




SOURCES & CREDITS :

   NOAA